createdAt,value
2018-11-03T00:01:08.501Z,19.40
2018-11-03T00:03:36.708Z,22.13
2018-11-03T00:06:04.876Z,20.50
2018-11-03T00:08:33.034Z,21.47
2018-11-03T00:11:01.210Z,20.00
2018-11-03T00:13:29.403Z,21.20
2018-11-03T00:15:57.374Z,22.20
2018-11-03T00:18:25.572Z,21.70
2018-11-03T00:20:53.707Z,22.53
2018-11-03T00:23:21.873Z,21.03
2018-11-03T00:25:50.035Z,22.60
2018-11-03T00:28:18.270Z,21.90
2018-11-03T00:30:46.458Z,23.47
2018-11-03T00:33:14.708Z,22.67
2018-11-03T00:35:42.951Z,21.53
2018-11-03T00:38:11.084Z,20.83
2018-11-03T00:40:39.346Z,24.20
2018-11-03T00:43:07.451Z,21.90
2018-11-03T00:45:35.754Z,24.10
2018-11-03T00:48:03.989Z,28.00
2018-11-03T00:50:32.150Z,27.50
2018-11-03T00:53:00.348Z,24.30
2018-11-03T00:55:28.529Z,28.60
2018-11-03T00:57:56.686Z,25.90
2018-11-03T01:00:24.898Z,28.17
2018-11-03T01:02:53.059Z,25.30
2018-11-03T01:05:21.231Z,25.37
2018-11-03T01:07:49.420Z,24.20
2018-11-03T01:10:17.679Z,23.13
2018-11-03T01:12:45.859Z,25.27
2018-11-03T01:15:16.066Z,26.50
2018-11-03T01:17:44.451Z,25.07
2018-11-03T01:20:13.944Z,26.30
2018-11-03T01:22:42.107Z,26.10
2018-11-03T01:25:10.592Z,26.17
2018-11-03T01:27:38.762Z,25.00
2018-11-03T01:30:10.530Z,25.97
2018-11-03T01:32:38.760Z,22.73
2018-11-03T01:35:07.584Z,23.23
2018-11-03T01:37:36.062Z,25.83
2018-11-03T01:40:04.451Z,25.30
2018-11-03T01:42:32.612Z,26.70
2018-11-03T01:45:00.811Z,27.57
2018-11-03T01:47:28.967Z,25.70
2018-11-03T01:49:57.131Z,27.43
2018-11-03T01:52:25.329Z,29.73
2018-11-03T01:54:53.486Z,28.90
2018-11-03T01:57:21.703Z,26.77
2018-11-03T01:59:49.884Z,28.10
2018-11-03T02:02:18.044Z,25.27
2018-11-03T02:04:46.216Z,24.37
2018-11-03T02:07:15.487Z,25.10
2018-11-03T02:09:43.663Z,27.83
2018-11-03T02:12:11.849Z,26.50
2018-11-03T02:14:40.067Z,26.33
2018-11-03T02:17:08.246Z,26.27
2018-11-03T02:19:36.880Z,25.60
2018-11-03T02:22:04.821Z,26.47
2018-11-03T02:24:33.013Z,27.17
2018-11-03T02:27:01.180Z,24.20
2018-11-03T02:29:29.395Z,29.20
2018-11-03T02:31:57.575Z,26.80
2018-11-03T02:34:25.756Z,26.10
2018-11-03T02:36:53.937Z,25.70
2018-11-03T02:39:22.107Z,25.80
2018-11-03T02:41:50.312Z,26.40
2018-11-03T02:44:18.483Z,26.80
2018-11-03T02:46:46.682Z,28.47
2018-11-03T02:49:14.859Z,28.07
2018-11-03T02:51:43.112Z,27.00
2018-11-03T02:54:11.272Z,29.40
2018-11-03T02:56:39.437Z,27.07
2018-11-03T02:59:07.595Z,28.90
2018-11-03T03:01:35.772Z,29.67
2018-11-03T03:04:03.940Z,30.20
2018-11-03T03:06:32.103Z,27.67
2018-11-03T03:09:00.340Z,29.90
2018-11-03T03:11:28.548Z,25.83
2018-11-03T03:13:56.718Z,27.47
2018-11-03T03:16:24.862Z,24.90
2018-11-03T03:18:53.029Z,24.30
2018-11-03T03:21:21.256Z,26.20
2018-11-03T03:23:49.455Z,24.97
2018-11-03T03:26:17.636Z,26.17
2018-11-03T03:28:45.941Z,26.57
2018-11-03T03:31:13.967Z,28.17
2018-11-03T03:33:42.152Z,28.03
2018-11-03T03:36:10.345Z,28.30
2018-11-03T03:38:38.577Z,30.63
2018-11-03T03:41:07.015Z,29.03
2018-11-03T03:43:35.176Z,29.00
2018-11-03T03:46:03.401Z,28.40
2018-11-03T03:48:31.636Z,30.37
2018-11-03T03:50:59.760Z,30.00
2018-11-03T03:53:27.973Z,30.77
2018-11-03T03:55:56.139Z,29.20
2018-11-03T03:58:24.340Z,29.80
2018-11-03T04:00:52.504Z,28.37
2018-11-03T04:03:20.690Z,30.87
2018-11-03T04:05:48.892Z,31.00
2018-11-03T04:08:17.101Z,29.23
2018-11-03T04:10:45.353Z,28.80
2018-11-03T04:13:13.507Z,30.13
2018-11-03T04:15:41.680Z,29.23
2018-11-03T04:18:09.851Z,29.30
2018-11-03T04:20:38.057Z,27.73
2018-11-03T04:23:06.240Z,27.30
2018-11-03T04:25:34.407Z,29.23
2018-11-03T04:28:02.579Z,27.77
2018-11-03T04:30:30.714Z,30.33
2018-11-03T04:32:58.855Z,29.63
2018-11-03T04:35:27.068Z,30.30
2018-11-03T04:37:55.241Z,30.90
2018-11-03T04:40:23.415Z,30.20
2018-11-03T04:42:51.565Z,29.80
2018-11-03T04:45:19.824Z,30.90
2018-11-03T04:47:47.938Z,33.10
2018-11-03T04:50:16.117Z,33.00
2018-11-03T04:52:44.274Z,27.43
2018-11-03T04:55:12.493Z,25.07
2018-11-03T04:57:46.194Z,26.60
2018-11-03T05:00:14.384Z,26.70
2018-11-03T05:02:42.545Z,25.77
2018-11-03T05:05:10.717Z,30.50
2018-11-03T05:07:38.891Z,30.00
2018-11-03T05:10:08.163Z,32.70
2018-11-03T05:12:36.795Z,29.20
2018-11-03T05:15:05.094Z,30.80
2018-11-03T05:17:33.296Z,24.37
2018-11-03T05:20:01.488Z,25.00
2018-11-03T05:22:29.695Z,25.67
2018-11-03T05:24:57.607Z,26.10
2018-11-03T05:27:25.573Z,26.23
2018-11-03T05:29:53.737Z,26.60
2018-11-03T05:32:22.033Z,28.20
2018-11-03T05:34:50.248Z,29.27
2018-11-03T05:37:18.411Z,26.87
2018-11-03T05:39:46.629Z,27.93
2018-11-03T05:42:14.977Z,26.10
2018-11-03T05:44:43.171Z,27.27
2018-11-03T05:47:11.535Z,27.90
2018-11-03T05:49:39.717Z,26.83
2018-11-03T05:52:07.892Z,26.40
2018-11-03T05:54:36.072Z,24.97
2018-11-03T05:57:04.331Z,28.67
2018-11-03T05:59:32.515Z,29.60
2018-11-03T06:02:00.738Z,29.47
2018-11-03T06:04:29.008Z,29.27
2018-11-03T06:06:57.267Z,28.40
2018-11-03T06:09:25.465Z,28.63
2018-11-03T06:11:53.643Z,28.07
2018-11-03T06:14:21.795Z,29.07
2018-11-03T06:16:49.992Z,29.70
2018-11-03T06:19:18.178Z,30.60
2018-11-03T06:21:46.341Z,29.57
2018-11-03T06:24:14.571Z,30.93
2018-11-03T06:26:42.777Z,31.67
2018-11-03T06:29:10.699Z,33.23
2018-11-03T06:31:38.692Z,29.80
2018-11-03T06:34:06.884Z,32.50
2018-11-03T06:36:35.092Z,31.00
2018-11-03T06:39:03.854Z,28.20
2018-11-03T06:41:31.939Z,33.97
2018-11-03T06:44:00.099Z,35.03
2018-11-03T06:46:28.319Z,32.33
2018-11-03T06:49:01.908Z,34.17
2018-11-03T06:51:30.081Z,31.73
2018-11-03T06:53:58.252Z,32.70
2018-11-03T06:56:26.490Z,34.60
2018-11-03T06:58:54.671Z,33.07
2018-11-03T07:01:22.847Z,36.27
2018-11-03T07:03:51.006Z,37.33
2018-11-03T07:06:19.240Z,35.77
2018-11-03T07:08:47.407Z,34.80
2018-11-03T07:11:15.604Z,35.03
2018-11-03T07:13:44.204Z,37.37
2018-11-03T07:16:12.362Z,37.00
2018-11-03T07:18:40.992Z,39.37
2018-11-03T07:21:09.198Z,36.63
2018-11-03T07:23:37.379Z,37.67
2018-11-03T07:26:06.088Z,36.40
2018-11-03T07:28:34.441Z,35.53
2018-11-03T07:31:02.708Z,37.90
2018-11-03T07:33:30.858Z,38.87
2018-11-03T07:35:59.159Z,39.87
2018-11-03T07:38:27.335Z,38.77
2018-11-03T07:40:55.594Z,39.13
2018-11-03T07:43:23.722Z,40.30
2018-11-03T07:45:53.459Z,38.23
2018-11-03T07:48:21.685Z,39.07
2018-11-03T07:50:49.827Z,38.73
2018-11-03T07:53:18.061Z,38.73
2018-11-03T07:55:46.224Z,37.40
2018-11-03T07:58:14.424Z,40.10
2018-11-03T08:00:42.659Z,39.80
2018-11-03T08:03:10.764Z,39.53
2018-11-03T08:05:38.949Z,38.37
2018-11-03T08:08:07.134Z,38.30
2018-11-03T08:10:35.360Z,36.43
2018-11-03T08:13:03.515Z,36.90
2018-11-03T08:15:31.746Z,37.27
2018-11-03T08:17:59.883Z,35.70
2018-11-03T08:20:28.043Z,37.80
2018-11-03T08:22:56.256Z,35.63
2018-11-03T08:25:24.456Z,36.00
2018-11-03T08:27:52.619Z,35.50
2018-11-03T08:30:20.804Z,35.30
2018-11-03T08:32:48.978Z,37.40
2018-11-03T08:35:17.166Z,38.00
2018-11-03T08:37:45.384Z,35.30
2018-11-03T08:40:13.580Z,36.67
2018-11-03T08:42:41.937Z,37.87
2018-11-03T08:45:10.722Z,36.47
2018-11-03T08:47:38.883Z,38.17
2018-11-03T08:50:08.664Z,37.57
2018-11-03T08:52:36.967Z,37.57
2018-11-03T08:55:06.426Z,40.00
2018-11-03T08:57:34.628Z,38.90
2018-11-03T09:00:03.015Z,40.00
2018-11-03T09:02:31.165Z,39.53
2018-11-03T09:04:59.336Z,39.47
2018-11-03T09:07:27.519Z,40.00
2018-11-03T09:09:55.727Z,41.57
2018-11-03T09:12:23.873Z,41.40
2018-11-03T09:14:52.080Z,42.80
2018-11-03T09:17:20.224Z,44.50
2018-11-03T09:19:48.416Z,41.87
2018-11-03T09:22:16.597Z,45.33
2018-11-03T09:24:44.829Z,42.03
2018-11-03T09:27:12.971Z,40.33
2018-11-03T09:29:41.134Z,37.93
2018-11-03T09:32:10.254Z,40.33
2018-11-03T09:34:38.451Z,39.10
2018-11-03T09:37:06.857Z,39.73
2018-11-03T09:39:35.057Z,39.10
2018-11-03T09:42:03.242Z,38.00
2018-11-03T09:44:31.396Z,38.97
2018-11-03T09:46:59.747Z,36.60
2018-11-03T09:49:27.939Z,37.23
2018-11-03T09:51:56.100Z,36.00
2018-11-03T09:54:24.381Z,36.37
2018-11-03T09:56:52.575Z,35.47
2018-11-03T09:59:20.748Z,36.17
2018-11-03T10:01:48.942Z,33.90
2018-11-03T10:04:17.157Z,33.40
2018-11-03T10:06:45.570Z,32.93
2018-11-03T10:09:13.689Z,33.60
2018-11-03T10:11:41.985Z,35.57
2018-11-03T10:14:10.167Z,31.67
2018-11-03T10:16:38.722Z,35.10
2018-11-03T10:19:06.887Z,35.10
2018-11-03T10:21:35.196Z,33.20
2018-11-03T10:24:03.376Z,33.17
2018-11-03T10:26:31.585Z,34.27
2018-11-03T10:28:59.735Z,31.40
2018-11-03T10:31:28.518Z,32.60
2018-11-03T10:33:56.925Z,30.73
2018-11-03T10:36:25.187Z,31.93
2018-11-03T10:38:53.615Z,54.00
2018-11-03T10:41:22.017Z,29.57
2018-11-03T10:43:50.292Z,29.00
2018-11-03T10:46:18.542Z,31.03
2018-11-03T10:48:46.725Z,30.20
2018-11-03T10:51:14.985Z,31.80
2018-11-03T10:53:43.297Z,28.67
2018-11-03T10:56:11.415Z,30.60
2018-11-03T10:58:39.575Z,29.27
2018-11-03T11:01:13.142Z,29.90
2018-11-03T11:03:46.879Z,28.87
2018-11-03T11:06:20.515Z,28.87
2018-11-03T11:08:54.033Z,27.63
2018-11-03T11:11:27.720Z,26.40
2018-11-03T11:13:55.962Z,27.07
2018-11-03T11:16:24.180Z,27.60
2018-11-03T11:18:52.255Z,28.93
2018-11-03T11:21:20.509Z,29.10
2018-11-03T11:23:48.675Z,28.17
2018-11-03T11:26:18.863Z,29.30
2018-11-03T11:28:47.063Z,27.50
2018-11-03T11:31:15.347Z,27.83
2018-11-03T11:33:43.414Z,26.53
2018-11-03T11:36:11.634Z,26.10
2018-11-03T11:38:39.934Z,26.10
2018-11-03T11:41:08.027Z,26.37
2018-11-03T11:43:36.202Z,25.10
2018-11-03T11:46:04.171Z,26.70
2018-11-03T11:51:07.099Z,23.60
2018-11-03T11:53:35.353Z,24.77
2018-11-03T11:56:03.601Z,23.40
2018-11-03T11:58:31.764Z,26.00
2018-11-03T12:00:59.932Z,23.83
2018-11-03T12:03:28.123Z,21.50
2018-11-03T12:05:56.394Z,22.00
2018-11-03T12:08:24.603Z,23.83
2018-11-03T12:10:52.778Z,23.77
2018-11-03T12:13:21.022Z,26.00
2018-11-03T12:15:49.172Z,23.10
2018-11-03T12:18:17.405Z,25.40
2018-11-03T12:20:45.720Z,22.40
2018-11-03T12:23:15.896Z,22.40
2018-11-03T12:25:44.096Z,21.13
2018-11-03T12:28:12.207Z,20.03
2018-11-03T12:30:42.504Z,21.60
2018-11-03T12:33:10.746Z,21.30
2018-11-03T12:35:38.904Z,21.60
2018-11-03T12:38:07.147Z,21.37
2018-11-03T12:40:35.339Z,19.73
2018-11-03T12:43:03.499Z,19.03
2018-11-03T12:45:31.660Z,20.17
2018-11-03T12:47:59.845Z,18.70
2018-11-03T12:50:28.040Z,19.67
2018-11-03T12:52:56.209Z,21.03
2018-11-03T12:55:24.475Z,21.50
2018-11-03T12:57:52.605Z,20.37
2018-11-03T13:00:20.879Z,23.77
2018-11-03T13:02:49.695Z,24.67
2018-11-03T13:05:18.029Z,22.90
2018-11-03T13:07:46.458Z,25.43
2018-11-03T13:10:14.661Z,26.93
2018-11-03T13:12:43.223Z,24.63
2018-11-03T13:15:12.565Z,24.03
2018-11-03T13:17:40.802Z,24.83
2018-11-03T13:20:11.731Z,26.00
2018-11-03T13:22:40.263Z,26.43
2018-11-03T13:25:09.005Z,25.50
2018-11-03T13:27:37.345Z,27.33
2018-11-03T13:30:08.201Z,26.50
2018-11-03T13:32:36.342Z,28.60
2018-11-03T13:35:05.467Z,26.73
2018-11-03T13:37:33.568Z,26.33
2018-11-03T13:40:01.735Z,28.70
2018-11-03T13:42:29.909Z,27.30
2018-11-03T13:44:58.101Z,24.93
2018-11-03T13:47:26.335Z,24.83
2018-11-03T13:49:54.471Z,26.17
2018-11-03T13:52:22.387Z,27.23
2018-11-03T13:54:50.368Z,26.87
2018-11-03T13:57:18.520Z,27.47
2018-11-03T13:59:46.758Z,29.03
2018-11-03T14:02:14.931Z,29.20
2018-11-03T14:04:44.224Z,30.57
2018-11-03T14:07:12.396Z,28.20
2018-11-03T14:09:40.627Z,28.87
2018-11-03T14:12:08.779Z,29.57
2018-11-03T14:14:36.972Z,32.23
2018-11-03T14:17:05.226Z,30.20
2018-11-03T14:19:33.349Z,27.80
2018-11-03T14:22:01.549Z,29.90
2018-11-03T14:24:29.721Z,29.87
2018-11-03T14:26:57.903Z,29.43
2018-11-03T14:29:27.167Z,27.67
2018-11-03T14:31:55.402Z,33.33
2018-11-03T14:34:23.562Z,28.57
2018-11-03T14:36:51.791Z,31.43
2018-11-03T14:39:19.976Z,26.70
2018-11-03T14:41:48.152Z,29.17
2018-11-03T14:44:16.311Z,28.87
2018-11-03T14:46:44.593Z,28.60
2018-11-03T14:49:12.831Z,27.23
2018-11-03T14:51:41.060Z,27.20
2018-11-03T14:54:09.306Z,27.50
2018-11-03T14:56:37.507Z,29.47
2018-11-03T14:59:05.702Z,29.90
2018-11-03T15:01:33.879Z,31.50
2018-11-03T15:04:02.056Z,33.67
2018-11-03T15:06:30.284Z,32.73
2018-11-03T15:08:58.476Z,32.40
2018-11-03T15:11:26.681Z,32.00
2018-11-03T15:13:55.028Z,33.87
2018-11-03T15:16:23.084Z,34.93
2018-11-03T15:18:51.287Z,31.43
2018-11-03T15:21:19.490Z,30.77
2018-11-03T15:23:48.724Z,30.40
2018-11-03T15:28:51.442Z,31.63
2018-11-03T15:31:19.603Z,31.57
2018-11-03T15:33:47.762Z,32.20
2018-11-03T15:36:15.972Z,31.63
2018-11-03T15:38:44.270Z,31.33
2018-11-03T15:41:12.555Z,33.00
2018-11-03T15:43:40.692Z,30.93
2018-11-03T15:46:08.870Z,34.00
2018-11-03T15:48:37.033Z,32.40
2018-11-03T15:51:05.225Z,31.03
2018-11-03T15:53:33.404Z,32.40
2018-11-03T15:56:01.585Z,33.73
2018-11-03T15:58:29.771Z,34.00
2018-11-03T16:00:57.951Z,32.07
2018-11-03T16:03:26.171Z,35.80
2018-11-03T16:05:54.347Z,40.93
2018-11-03T16:08:22.564Z,38.37
2018-11-03T16:10:56.257Z,38.87
2018-11-03T16:13:24.416Z,40.90
2018-11-03T16:15:52.636Z,38.30
2018-11-03T16:18:20.809Z,36.20
2018-11-03T16:20:48.990Z,38.30
2018-11-03T16:23:17.155Z,41.87
2018-11-03T16:25:45.401Z,39.37
2018-11-03T16:28:13.573Z,38.80
2018-11-03T16:30:41.714Z,38.53
2018-11-03T16:33:10.008Z,38.20
2018-11-03T16:35:38.356Z,41.47
2018-11-03T16:38:06.407Z,41.53
2018-11-03T16:40:34.562Z,40.17
2018-11-03T16:43:02.735Z,40.80
2018-11-03T16:45:30.937Z,38.83
2018-11-03T16:47:59.228Z,40.77
2018-11-03T16:50:27.391Z,40.00
2018-11-03T16:52:55.544Z,39.93
2018-11-03T16:55:23.819Z,36.30
2018-11-03T16:57:51.945Z,39.37
2018-11-03T17:00:20.116Z,38.30
2018-11-03T17:02:48.370Z,38.50
2018-11-03T17:05:16.554Z,42.57
2018-11-03T17:07:44.728Z,41.90
2018-11-03T17:10:14.231Z,42.00
2018-11-03T17:12:44.022Z,40.87
2018-11-03T17:15:12.702Z,38.50
2018-11-03T17:17:40.942Z,40.90
2018-11-03T17:20:09.574Z,41.17
2018-11-03T17:22:37.822Z,41.70
2018-11-03T17:25:06.855Z,42.20
2018-11-03T17:27:35.023Z,44.03
2018-11-03T17:30:03.209Z,42.27
2018-11-03T17:32:31.414Z,40.40
2018-11-03T17:34:59.564Z,42.97
2018-11-03T17:37:27.714Z,41.93
2018-11-03T17:39:55.900Z,41.57
2018-11-03T17:42:24.059Z,40.17
2018-11-03T17:44:52.223Z,44.90
2018-11-03T17:47:20.400Z,43.70
2018-11-03T17:49:48.535Z,41.03
2018-11-03T17:52:17.076Z,42.43
2018-11-03T17:54:45.242Z,41.23
2018-11-03T17:57:13.435Z,36.50
2018-11-03T17:59:41.626Z,35.37
2018-11-03T18:02:09.784Z,38.30
2018-11-03T18:04:37.959Z,46.23
2018-11-03T18:07:06.160Z,54.43
2018-11-03T18:09:34.399Z,44.00
2018-11-03T18:12:02.679Z,43.50
2018-11-03T18:14:30.876Z,48.33
2018-11-03T18:16:59.071Z,48.20
2018-11-03T18:19:27.331Z,42.17
2018-11-03T18:21:55.497Z,47.43
2018-11-03T18:24:23.657Z,45.17
2018-11-03T18:26:51.831Z,45.10
2018-11-03T18:29:19.981Z,48.00
2018-11-03T18:31:48.144Z,46.50
2018-11-03T18:34:16.355Z,47.00
2018-11-03T18:36:44.459Z,43.60
2018-11-03T18:39:12.622Z,43.20
2018-11-03T18:41:40.843Z,39.77
2018-11-03T18:44:09.157Z,36.63
2018-11-03T18:46:37.532Z,39.23
2018-11-03T18:49:05.809Z,38.23
2018-11-03T18:51:33.959Z,36.53
2018-11-03T18:54:02.143Z,36.17
2018-11-03T18:56:30.312Z,39.87
2018-11-03T18:58:58.508Z,47.40
2018-11-03T19:01:26.744Z,60.57
2018-11-03T19:03:54.957Z,67.03
2018-11-03T19:06:23.734Z,76.90
2018-11-03T19:08:51.915Z,72.10
2018-11-03T19:13:54.688Z,43.60
2018-11-03T19:16:22.883Z,54.70
2018-11-03T19:18:51.063Z,46.67
2018-11-03T19:21:19.241Z,42.80
2018-11-03T19:23:47.568Z,38.57
2018-11-03T19:26:15.638Z,41.20
2018-11-03T19:28:43.798Z,36.50
2018-11-03T19:31:12.013Z,37.00
2018-11-03T19:33:40.177Z,37.40
2018-11-03T19:36:08.378Z,36.63
2018-11-03T19:38:36.579Z,42.67
2018-11-03T19:41:04.745Z,54.80
2018-11-03T19:43:33.416Z,56.40
2018-11-03T19:46:01.584Z,37.13
2018-11-03T19:48:29.784Z,42.50
2018-11-03T19:50:58.803Z,39.30
2018-11-03T19:53:26.964Z,40.07
2018-11-03T19:55:55.222Z,43.03
2018-11-03T19:58:23.391Z,45.80
2018-11-03T20:00:51.611Z,39.77
2018-11-03T20:03:19.771Z,37.73
2018-11-03T20:05:47.908Z,36.07
2018-11-03T20:08:16.213Z,47.20
2018-11-03T20:10:44.341Z,38.43
2018-11-03T20:13:12.621Z,37.47
2018-11-03T20:15:42.798Z,34.57
2018-11-03T20:18:10.980Z,36.20
2018-11-03T20:20:39.137Z,42.80
2018-11-03T20:23:07.316Z,41.43
2018-11-03T20:25:35.504Z,41.23
2018-11-03T20:28:03.676Z,39.40
2018-11-03T20:30:31.829Z,41.57
2018-11-03T20:33:00.020Z,39.50
2018-11-03T20:35:28.223Z,42.90
2018-11-03T20:37:56.392Z,44.20
2018-11-03T20:40:24.541Z,47.77
2018-11-03T20:42:52.691Z,46.10
2018-11-03T20:45:20.864Z,40.80
2018-11-03T20:47:49.015Z,47.10
2018-11-03T20:50:17.180Z,49.90
2018-11-03T20:52:45.340Z,48.20
2018-11-03T20:55:13.685Z,48.17
2018-11-03T20:57:42.071Z,47.60
2018-11-03T21:00:12.422Z,46.60
2018-11-03T21:02:40.578Z,46.30
2018-11-03T21:05:09.909Z,56.47
2018-11-03T21:07:38.430Z,52.03
2018-11-03T21:10:06.638Z,57.40
2018-11-03T21:12:34.872Z,52.50
2018-11-03T21:15:03.068Z,46.97
2018-11-03T21:17:31.056Z,46.83
2018-11-03T21:19:59.300Z,43.77
2018-11-03T21:22:27.484Z,45.97
2018-11-03T21:24:55.712Z,41.57
2018-11-03T21:27:23.885Z,39.90
2018-11-03T21:29:52.099Z,45.57
2018-11-03T21:32:20.339Z,55.13
2018-11-03T21:34:48.379Z,48.40
2018-11-03T21:37:16.564Z,49.70
2018-11-03T21:39:44.738Z,52.60
2018-11-03T21:42:12.904Z,52.17
2018-11-03T21:44:42.100Z,51.10
2018-11-03T21:47:10.332Z,51.83
2018-11-03T21:49:38.496Z,50.60
2018-11-03T21:52:06.664Z,49.10
2018-11-03T21:54:35.242Z,54.07
2018-11-03T21:57:03.507Z,52.40
2018-11-03T21:59:31.713Z,50.37
2018-11-03T22:01:59.866Z,50.90
2018-11-03T22:04:28.060Z,52.80
2018-11-03T22:06:56.204Z,53.73
2018-11-03T22:09:24.367Z,53.20
2018-11-03T22:11:52.526Z,49.87
2018-11-03T22:14:20.757Z,50.80
2018-11-03T22:16:48.910Z,50.77
2018-11-03T22:19:17.112Z,56.27
2018-11-03T22:21:45.327Z,52.67
2018-11-03T22:24:13.466Z,49.53
2018-11-03T22:26:41.649Z,47.90
2018-11-03T22:29:09.832Z,48.93
2018-11-03T22:31:37.996Z,47.33
2018-11-03T22:34:06.560Z,49.50
2018-11-03T22:36:34.719Z,47.53
2018-11-03T22:39:02.964Z,48.30
2018-11-03T22:41:31.159Z,45.70
2018-11-03T22:43:59.319Z,45.00
2018-11-03T22:46:27.512Z,48.50
2018-11-03T22:48:55.694Z,47.40
2018-11-03T22:51:23.894Z,43.97
2018-11-03T22:53:52.101Z,45.20
2018-11-03T22:56:20.293Z,45.00
2018-11-03T22:58:48.458Z,45.40
2018-11-03T23:01:16.676Z,48.00
2018-11-03T23:03:44.880Z,46.27
2018-11-03T23:06:13.153Z,46.63
2018-11-03T23:08:41.302Z,45.73
2018-11-03T23:11:09.509Z,43.03
2018-11-03T23:13:37.693Z,42.90
2018-11-03T23:16:05.905Z,42.97
2018-11-03T23:18:34.097Z,43.23
2018-11-03T23:21:02.313Z,44.40
2018-11-03T23:23:30.508Z,43.90
2018-11-03T23:25:58.671Z,43.33
2018-11-03T23:28:26.837Z,44.80
2018-11-03T23:30:55.118Z,47.03
2018-11-03T23:33:23.330Z,47.57
2018-11-03T23:35:51.495Z,45.97
2018-11-03T23:38:19.696Z,45.57
2018-11-03T23:40:47.839Z,45.37
2018-11-03T23:43:16.043Z,44.93
2018-11-03T23:45:44.186Z,44.67
2018-11-03T23:48:12.339Z,46.40
2018-11-03T23:50:40.499Z,45.13
2018-11-03T23:53:10.730Z,44.70
2018-11-03T23:55:39.903Z,43.53
2018-11-03T23:58:08.072Z,44.97
